createdAt,value
2023-01-29T00:00:45.051Z,96.48
2023-01-29T00:01:45.090Z,96.48
2023-01-29T00:02:45.183Z,96.37
2023-01-29T00:03:45.057Z,96.37
2023-01-29T00:04:45.019Z,96.37
2023-01-29T00:05:45.040Z,96.37
2023-01-29T00:06:45.007Z,96.26
2023-01-29T00:07:45.008Z,96.37
2023-01-29T00:08:44.980Z,96.42
2023-01-29T00:09:45.204Z,96.31
2023-01-29T00:10:45.004Z,96.20
2023-01-29T00:11:44.971Z,96.20
2023-01-29T00:12:44.944Z,96.31
2023-01-29T00:13:44.968Z,96.20
2023-01-29T00:14:44.929Z,96.31
2023-01-29T00:15:44.925Z,96.31
2023-01-29T00:16:44.989Z,96.42
2023-01-29T00:17:44.907Z,96.31
2023-01-29T00:18:45.573Z,96.31
2023-01-29T00:19:45.687Z,96.31
2023-01-29T00:20:45.075Z,96.31
2023-01-29T00:21:44.866Z,96.42
2023-01-29T00:22:44.836Z,96.31
2023-01-29T00:23:44.839Z,96.31
2023-01-29T00:24:44.802Z,96.31
2023-01-29T00:25:44.804Z,96.31
2023-01-29T00:26:44.767Z,96.31
2023-01-29T00:27:44.835Z,96.31
2023-01-29T00:28:44.770Z,96.31
2023-01-29T00:29:44.775Z,96.35
2023-01-29T00:30:44.743Z,96.46
2023-01-29T00:31:44.847Z,96.35
2023-01-29T00:32:44.724Z,96.46
2023-01-29T00:33:44.781Z,96.46
2023-01-29T00:34:44.701Z,96.46
2023-01-29T00:35:44.729Z,96.56
2023-01-29T00:36:44.676Z,96.46
2023-01-29T00:37:44.695Z,96.46
2023-01-29T00:38:44.666Z,96.35
2023-01-29T00:39:48.193Z,96.35
2023-01-29T00:40:44.690Z,96.25
2023-01-29T00:41:44.639Z,96.35
2023-01-29T00:42:44.605Z,96.35
2023-01-29T00:43:44.646Z,96.46
2023-01-29T00:44:44.589Z,96.46
2023-01-29T00:45:44.596Z,96.46
2023-01-29T00:46:44.645Z,96.35
2023-01-29T00:47:44.625Z,96.46
2023-01-29T00:48:44.545Z,96.46
2023-01-29T00:49:44.575Z,96.46
2023-01-29T00:50:44.524Z,96.35
2023-01-29T00:51:44.541Z,96.25
2023-01-29T00:52:44.504Z,96.25
2023-01-29T00:53:44.512Z,96.25
2023-01-29T00:54:44.503Z,96.25
2023-01-29T00:55:44.494Z,96.29
2023-01-29T00:56:44.451Z,96.25
2023-01-29T00:57:44.480Z,96.19
2023-01-29T00:58:44.430Z,96.29
2023-01-29T00:59:45.171Z,96.29
2023-01-29T01:00:45.377Z,96.29
2023-01-29T01:01:44.466Z,96.39
2023-01-29T01:02:44.399Z,96.29
2023-01-29T01:03:44.402Z,96.29
2023-01-29T01:04:44.389Z,96.29
2023-01-29T01:05:44.395Z,96.19
2023-01-29T01:06:44.355Z,96.19
2023-01-29T01:07:44.360Z,96.29
2023-01-29T01:08:44.320Z,96.29
2023-01-29T01:09:44.339Z,96.29
2023-01-29T01:10:44.310Z,96.19
2023-01-29T01:11:44.316Z,96.08
2023-01-29T01:12:44.289Z,96.08
2023-01-29T01:13:44.313Z,96.19
2023-01-29T01:14:44.269Z,96.19
2023-01-29T01:15:44.282Z,96.29
2023-01-29T01:16:44.245Z,96.29
2023-01-29T01:17:44.256Z,96.29
2023-01-29T01:18:44.218Z,96.29
2023-01-29T01:19:44.243Z,96.19
2023-01-29T01:20:44.249Z,96.29
2023-01-29T01:21:44.471Z,96.29
2023-01-29T01:22:44.186Z,96.29
2023-01-29T01:23:44.187Z,96.19
2023-01-29T01:24:44.154Z,96.19
2023-01-29T01:25:44.177Z,96.19
2023-01-29T01:26:44.145Z,95.97
2023-01-29T01:27:44.149Z,96.08
2023-01-29T01:28:44.109Z,96.08
2023-01-29T01:29:44.131Z,96.08
2023-01-29T01:30:44.123Z,96.08
2023-01-29T01:31:44.124Z,96.01
2023-01-29T01:32:44.066Z,95.91
2023-01-29T01:33:44.075Z,96.01
2023-01-29T01:34:44.047Z,96.01
2023-01-29T01:35:44.084Z,96.01
2023-01-29T01:36:44.033Z,96.01
2023-01-29T01:37:44.034Z,96.01
2023-01-29T01:38:44.005Z,96.01
2023-01-29T01:39:44.018Z,96.01
2023-01-29T01:40:43.985Z,96.01
2023-01-29T01:41:44.005Z,96.01
2023-01-29T01:42:43.965Z,96.01
2023-01-29T01:43:43.975Z,96.12
2023-01-29T01:44:43.935Z,96.12
2023-01-29T01:45:44.006Z,96.12
2023-01-29T01:46:43.928Z,96.23
2023-01-29T01:47:43.933Z,96.12
2023-01-29T01:48:43.892Z,96.12
2023-01-29T01:49:43.912Z,96.12
2023-01-29T01:50:43.882Z,96.12
2023-01-29T01:51:43.891Z,96.12
2023-01-29T01:52:43.862Z,96.12
2023-01-29T01:53:43.869Z,96.12
2023-01-29T01:54:43.836Z,96.12
2023-01-29T01:55:43.840Z,96.12
2023-01-29T01:56:43.826Z,96.01
2023-01-29T01:57:43.826Z,96.01
2023-01-29T01:58:43.792Z,96.01
2023-01-29T01:59:43.815Z,95.91
2023-01-29T02:00:43.840Z,95.91
2023-01-29T02:01:43.786Z,95.91
2023-01-29T02:02:43.755Z,95.95
2023-01-29T02:03:43.768Z,95.95
2023-01-29T02:04:43.726Z,95.95
2023-01-29T02:05:43.738Z,96.06
2023-01-29T02:06:43.707Z,95.95
2023-01-29T02:07:43.740Z,95.95
2023-01-29T02:08:43.687Z,95.84
2023-01-29T02:09:43.688Z,95.84
2023-01-29T02:10:43.689Z,95.95
2023-01-29T02:11:43.669Z,95.84
2023-01-29T02:12:43.658Z,95.74
2023-01-29T02:13:43.629Z,95.74
2023-01-29T02:14:43.645Z,95.63
2023-01-29T02:15:43.610Z,95.63
2023-01-29T02:16:43.639Z,95.84
2023-01-29T02:17:43.656Z,95.74
2023-01-29T02:18:43.602Z,95.74
2023-01-29T02:19:43.624Z,95.74
2023-01-29T02:20:43.578Z,95.74
2023-01-29T02:21:43.548Z,95.53
2023-01-29T02:22:43.746Z,95.57
2023-01-29T02:23:43.697Z,95.57
2023-01-29T02:24:43.621Z,95.47
2023-01-29T02:25:43.495Z,95.57
2023-01-29T02:26:43.507Z,95.57
2023-01-29T02:27:43.480Z,95.63
2023-01-29T02:28:43.500Z,95.63
2023-01-29T02:29:43.460Z,95.53
2023-01-29T02:30:43.494Z,95.63
2023-01-29T02:31:43.446Z,95.63
2023-01-29T02:32:43.449Z,95.74
2023-01-29T02:33:43.417Z,95.84
2023-01-29T02:34:43.424Z,95.74
2023-01-29T02:35:43.383Z,95.74
2023-01-29T02:36:43.404Z,95.74
2023-01-29T02:37:43.370Z,95.67
2023-01-29T02:38:43.392Z,95.67
2023-01-29T02:39:43.405Z,95.67
2023-01-29T02:40:43.363Z,95.78
2023-01-29T02:41:43.344Z,95.67
2023-01-29T02:42:44.050Z,95.67
2023-01-29T02:43:43.323Z,95.67
2023-01-29T02:44:43.333Z,95.67
2023-01-29T02:45:43.308Z,95.67
2023-01-29T02:46:43.293Z,95.67
2023-01-29T02:47:43.271Z,95.78
2023-01-29T02:48:43.276Z,95.89
2023-01-29T02:49:43.245Z,95.89
2023-01-29T02:50:43.261Z,95.67
2023-01-29T02:51:43.222Z,95.78
2023-01-29T02:52:43.230Z,95.78
2023-01-29T02:53:43.205Z,95.78
2023-01-29T02:54:43.221Z,95.67
2023-01-29T02:55:43.187Z,95.67
2023-01-29T02:56:43.191Z,95.78
2023-01-29T02:57:43.165Z,95.78
2023-01-29T02:58:43.169Z,95.89
2023-01-29T02:59:43.130Z,95.89
2023-01-29T03:00:43.177Z,95.89
2023-01-29T03:01:43.121Z,95.89
2023-01-29T03:02:43.129Z,95.89
2023-01-29T03:03:43.642Z,95.78
2023-01-29T03:04:43.120Z,95.78
2023-01-29T03:05:43.069Z,95.89
2023-01-29T03:06:43.081Z,95.89
2023-01-29T03:07:43.057Z,95.89
2023-01-29T03:08:43.110Z,95.89
2023-01-29T03:09:43.029Z,95.78
2023-01-29T03:10:43.050Z,95.78
2023-01-29T03:11:43.010Z,95.78
2023-01-29T03:12:43.033Z,95.78
2023-01-29T03:13:42.992Z,95.78
2023-01-29T03:14:42.998Z,95.67
2023-01-29T03:15:42.956Z,95.67
2023-01-29T03:16:43.007Z,95.67
2023-01-29T03:17:42.968Z,95.57
2023-01-29T03:18:42.948Z,95.67
2023-01-29T03:19:42.917Z,95.67
2023-01-29T03:20:42.929Z,95.67
2023-01-29T03:21:42.896Z,95.67
2023-01-29T03:22:42.913Z,95.78
2023-01-29T03:23:42.881Z,95.78
2023-01-29T03:24:42.889Z,95.67
2023-01-29T03:25:42.859Z,95.57
2023-01-29T03:26:42.865Z,95.57
2023-01-29T03:27:42.832Z,95.57
2023-01-29T03:28:42.876Z,95.57
2023-01-29T03:29:42.814Z,95.51
2023-01-29T03:30:42.825Z,95.51
2023-01-29T03:31:42.891Z,95.51
2023-01-29T03:32:42.812Z,95.57
2023-01-29T03:33:42.775Z,95.57
2023-01-29T03:34:42.786Z,95.57
2023-01-29T03:35:42.756Z,95.61
2023-01-29T03:36:42.763Z,95.51
2023-01-29T03:37:42.723Z,95.51
2023-01-29T03:38:42.733Z,95.40
2023-01-29T03:39:42.716Z,95.40
2023-01-29T03:40:42.720Z,95.29
2023-01-29T03:41:42.688Z,95.29
2023-01-29T03:42:42.692Z,95.29
2023-01-29T03:43:42.663Z,95.29
2023-01-29T03:44:42.713Z,95.29
2023-01-29T03:45:42.713Z,95.19
2023-01-29T03:46:42.667Z,95.19
2023-01-29T03:47:42.621Z,95.19
2023-01-29T03:48:42.623Z,95.08
2023-01-29T03:49:42.606Z,95.08
2023-01-29T03:50:42.610Z,94.98
2023-01-29T03:51:42.586Z,94.98
2023-01-29T03:52:42.582Z,95.08
2023-01-29T03:53:42.551Z,94.98
2023-01-29T03:54:42.571Z,95.02
2023-01-29T03:55:42.541Z,95.08
2023-01-29T03:56:42.543Z,95.02
2023-01-29T03:57:42.513Z,95.02
2023-01-29T03:58:42.564Z,95.12
2023-01-29T03:59:42.493Z,95.02
2023-01-29T04:00:42.512Z,95.02
2023-01-29T04:01:42.538Z,95.02
2023-01-29T04:02:42.491Z,95.02
2023-01-29T04:03:42.458Z,95.02
2023-01-29T04:04:42.478Z,95.02
2023-01-29T04:05:42.439Z,95.02
2023-01-29T04:06:42.438Z,95.02
2023-01-29T04:07:42.413Z,95.02
2023-01-29T04:08:42.413Z,95.02
2023-01-29T04:09:42.379Z,95.02
2023-01-29T04:10:42.401Z,95.12
2023-01-29T04:11:42.356Z,95.12
2023-01-29T04:12:42.378Z,95.12
2023-01-29T04:13:42.347Z,95.23
2023-01-29T04:14:42.366Z,95.23
2023-01-29T04:15:42.317Z,95.12
2023-01-29T04:16:42.381Z,95.12
2023-01-29T04:17:42.320Z,95.23
2023-01-29T04:18:42.341Z,95.23
2023-01-29T04:19:42.285Z,95.23
2023-01-29T04:20:42.294Z,95.34
2023-01-29T04:21:42.250Z,95.23
2023-01-29T04:22:42.263Z,95.23
2023-01-29T04:23:42.235Z,95.23
2023-01-29T04:24:42.270Z,95.23
2023-01-29T04:25:42.216Z,95.23
2023-01-29T04:26:42.233Z,95.12
2023-01-29T04:27:42.187Z,95.12
2023-01-29T04:28:42.210Z,95.12
2023-01-29T04:29:42.164Z,94.91
2023-01-29T04:30:42.213Z,94.91
2023-01-29T04:31:42.187Z,94.81
2023-01-29T04:32:42.155Z,94.81
2023-01-29T04:33:42.123Z,94.81
2023-01-29T04:34:42.150Z,94.91
2023-01-29T04:35:42.114Z,95.02
2023-01-29T04:36:42.125Z,95.12
2023-01-29T04:37:42.073Z,95.23
2023-01-29T04:38:42.158Z,95.34
2023-01-29T04:39:42.078Z,95.40
2023-01-29T04:40:42.083Z,95.40
2023-01-29T04:41:42.031Z,95.40
2023-01-29T04:42:42.066Z,95.51
2023-01-29T04:43:42.014Z,95.61
2023-01-29T04:44:42.032Z,95.61
2023-01-29T04:45:42.731Z,95.67
2023-01-29T04:46:42.011Z,95.67
2023-01-29T04:47:42.051Z,95.78
2023-01-29T04:48:41.980Z,95.78
2023-01-29T04:49:41.952Z,95.89
2023-01-29T04:50:42.035Z,95.89
2023-01-29T04:51:41.933Z,95.84
2023-01-29T04:52:41.935Z,95.84
2023-01-29T04:53:41.902Z,95.95
2023-01-29T04:54:41.921Z,95.95
2023-01-29T04:55:41.909Z,95.95
2023-01-29T04:56:41.905Z,95.95
2023-01-29T04:57:41.873Z,95.91
2023-01-29T04:58:41.903Z,95.80
2023-01-29T04:59:41.846Z,95.80
2023-01-29T05:00:41.872Z,95.80
2023-01-29T05:01:41.903Z,95.70
2023-01-29T05:02:41.860Z,95.59
2023-01-29T05:03:41.796Z,95.59
2023-01-29T05:04:41.844Z,95.48
2023-01-29T05:05:42.638Z,95.38
2023-01-29T05:06:42.085Z,95.31
2023-01-29T05:07:41.771Z,95.27
2023-01-29T05:08:41.769Z,95.17
2023-01-29T05:09:41.727Z,95.17
2023-01-29T05:10:41.746Z,95.17
2023-01-29T05:11:41.718Z,95.17
2023-01-29T05:12:41.726Z,95.06
2023-01-29T05:13:41.693Z,95.06
2023-01-29T05:14:41.703Z,95.06
2023-01-29T05:15:41.685Z,95.06
2023-01-29T05:16:41.676Z,95.06
2023-01-29T05:17:41.657Z,95.06
2023-01-29T05:18:41.665Z,94.95
2023-01-29T05:19:41.626Z,94.95
2023-01-29T05:20:41.636Z,94.95
2023-01-29T05:21:41.600Z,94.95
2023-01-29T05:22:41.646Z,94.95
2023-01-29T05:23:41.631Z,94.95
2023-01-29T05:24:41.628Z,94.85
2023-01-29T05:25:41.562Z,94.85
2023-01-29T05:26:41.816Z,94.74
2023-01-29T05:27:41.549Z,94.74
2023-01-29T05:28:41.553Z,94.74
2023-01-29T05:29:41.514Z,94.74
2023-01-29T05:30:41.560Z,94.74
2023-01-29T05:31:41.529Z,94.64
2023-01-29T05:32:41.514Z,94.74
2023-01-29T05:33:41.473Z,94.64
2023-01-29T05:34:41.489Z,94.64
2023-01-29T05:35:41.453Z,94.53
2023-01-29T05:36:41.463Z,94.53
2023-01-29T05:37:41.453Z,94.42
2023-01-29T05:38:41.453Z,94.32
2023-01-29T05:39:41.439Z,94.36
2023-01-29T05:40:41.424Z,94.25
2023-01-29T05:41:41.385Z,94.15
2023-01-29T05:42:41.392Z,94.04
2023-01-29T05:43:41.384Z,94.04
2023-01-29T05:44:41.386Z,93.93
2023-01-29T05:45:41.342Z,93.83
2023-01-29T05:46:41.787Z,93.83
2023-01-29T05:47:41.331Z,93.83
2023-01-29T05:48:41.351Z,93.83
2023-01-29T05:49:41.304Z,93.72
2023-01-29T05:50:41.340Z,93.76
2023-01-29T05:51:41.283Z,93.87
2023-01-29T05:52:41.293Z,93.87
2023-01-29T05:53:41.275Z,93.93
2023-01-29T05:54:41.280Z,94.04
2023-01-29T05:55:41.231Z,94.15
2023-01-29T05:56:41.255Z,94.15
2023-01-29T05:57:41.210Z,94.15
2023-01-29T05:58:41.243Z,94.25
2023-01-29T05:59:41.197Z,94.25
2023-01-29T06:01:32.460Z,94.25
2023-01-29T06:02:32.448Z,94.25
2023-01-29T06:03:32.402Z,94.25
2023-01-29T06:04:32.416Z,94.15
2023-01-29T06:05:32.375Z,94.15
2023-01-29T06:06:32.379Z,94.09
2023-01-29T06:07:32.390Z,94.09
2023-01-29T06:08:32.357Z,94.09
2023-01-29T06:09:32.361Z,94.09
2023-01-29T06:10:32.336Z,94.09
2023-01-29T06:11:32.301Z,94.09
2023-01-29T06:12:32.340Z,93.98
2023-01-29T06:13:32.275Z,93.98
2023-01-29T06:14:32.272Z,93.98
2023-01-29T06:15:32.286Z,93.98
2023-01-29T06:16:32.293Z,93.98
2023-01-29T06:17:32.256Z,93.98
2023-01-29T06:18:32.232Z,93.87
2023-01-29T06:19:32.247Z,93.98
2023-01-29T06:20:32.217Z,93.98
2023-01-29T06:21:32.300Z,93.98
2023-01-29T06:22:32.202Z,93.98
2023-01-29T06:23:32.195Z,94.02
2023-01-29T06:24:32.298Z,94.02
2023-01-29T06:25:32.208Z,94.02
2023-01-29T06:26:32.140Z,94.02
2023-01-29T06:27:32.152Z,94.02
2023-01-29T06:28:32.114Z,93.91
2023-01-29T06:29:32.145Z,93.91
2023-01-29T06:30:32.206Z,94.02
2023-01-29T06:31:39.929Z,94.12
2023-01-29T06:32:33.138Z,94.12
2023-01-29T06:33:32.090Z,94.12
2023-01-29T06:34:32.105Z,94.23
2023-01-29T06:35:32.067Z,94.34
2023-01-29T06:36:32.021Z,94.34
2023-01-29T06:37:32.060Z,94.34
2023-01-29T06:38:32.011Z,94.34
2023-01-29T06:39:32.022Z,94.45
2023-01-29T06:40:32.017Z,94.45
2023-01-29T06:41:32.035Z,94.45
2023-01-29T06:42:32.047Z,94.55
2023-01-29T06:43:31.986Z,94.55
2023-01-29T06:44:32.175Z,94.55
2023-01-29T06:45:32.741Z,94.55
2023-01-29T06:46:31.929Z,94.65
2023-01-29T06:47:31.970Z,94.65
2023-01-29T06:48:31.900Z,94.72
2023-01-29T06:49:31.908Z,94.72
2023-01-29T06:50:32.039Z,94.82
2023-01-29T06:51:31.912Z,94.82
2023-01-29T06:52:31.860Z,94.93
2023-01-29T06:53:31.896Z,94.89
2023-01-29T06:54:31.854Z,94.89
2023-01-29T06:55:31.888Z,95.00
2023-01-29T06:56:31.819Z,95.00
2023-01-29T06:57:31.843Z,95.00
2023-01-29T06:58:31.789Z,95.10
2023-01-29T06:59:31.814Z,95.06
2023-01-29T07:00:31.817Z,95.06
2023-01-29T07:01:36.011Z,95.17
2023-01-29T07:02:31.901Z,95.17
2023-01-29T07:03:31.789Z,95.12
2023-01-29T07:04:31.732Z,95.12
2023-01-29T07:05:31.760Z,95.12
2023-01-29T07:06:31.719Z,95.02
2023-01-29T07:07:31.798Z,95.02
2023-01-29T07:08:31.691Z,95.02
2023-01-29T07:09:31.697Z,95.02
2023-01-29T07:10:31.656Z,94.87
2023-01-29T07:11:31.723Z,94.87
2023-01-29T07:12:31.638Z,94.76
2023-01-29T07:13:32.374Z,94.76
2023-01-29T07:14:31.680Z,94.76
2023-01-29T07:15:31.645Z,94.76
2023-01-29T07:16:31.791Z,94.61
2023-01-29T07:17:31.616Z,94.61
2023-01-29T07:18:31.616Z,94.61
2023-01-29T07:19:31.588Z,94.51
2023-01-29T07:20:31.553Z,94.40
2023-01-29T07:21:31.586Z,94.40
2023-01-29T07:22:31.559Z,94.40
2023-01-29T07:23:31.534Z,94.36
2023-01-29T07:24:31.541Z,94.36
2023-01-29T07:25:31.520Z,94.25
2023-01-29T07:26:32.125Z,94.25
2023-01-29T07:27:31.505Z,94.25
2023-01-29T07:28:31.520Z,94.25
2023-01-29T07:29:31.500Z,94.15
2023-01-29T07:30:31.458Z,94.04
2023-01-29T07:31:31.624Z,93.79
2023-01-29T07:32:31.432Z,93.68
2023-01-29T07:33:31.434Z,93.68
2023-01-29T07:34:31.391Z,93.68
2023-01-29T07:35:31.412Z,93.57
2023-01-29T07:36:31.383Z,93.57
2023-01-29T07:37:31.399Z,93.68
2023-01-29T07:38:31.397Z,93.57
2023-01-29T07:39:31.379Z,93.57
2023-01-29T07:40:31.341Z,93.43
2023-01-29T07:41:31.342Z,93.32
2023-01-29T07:42:31.322Z,93.32
2023-01-29T07:43:31.333Z,93.21
2023-01-29T07:44:31.450Z,93.32
2023-01-29T07:45:31.372Z,93.28
2023-01-29T07:46:32.023Z,93.18
2023-01-29T07:47:31.304Z,93.18
2023-01-29T07:48:31.281Z,93.18
2023-01-29T07:49:31.301Z,93.28
2023-01-29T07:50:31.228Z,93.28
2023-01-29T07:51:31.362Z,93.28
2023-01-29T07:52:31.214Z,93.24
2023-01-29T07:53:31.263Z,93.02
2023-01-29T07:54:31.262Z,93.02
2023-01-29T07:55:31.198Z,93.02
2023-01-29T07:56:31.157Z,92.92
2023-01-29T07:57:31.248Z,92.77
2023-01-29T07:58:31.157Z,92.67
2023-01-29T07:59:31.171Z,92.67
2023-01-29T08:00:31.126Z,92.67
2023-01-29T08:01:31.154Z,92.56
2023-01-29T08:02:31.211Z,92.41
2023-01-29T08:03:31.111Z,92.20
2023-01-29T08:04:31.074Z,92.20
2023-01-29T08:05:31.090Z,92.20
2023-01-29T08:06:31.127Z,91.99
2023-01-29T08:07:31.176Z,91.85
2023-01-29T08:08:31.033Z,91.95
2023-01-29T08:09:31.040Z,91.95
2023-01-29T08:10:31.045Z,91.74
2023-01-29T08:11:31.012Z,91.42
2023-01-29T08:12:31.115Z,91.31
2023-01-29T08:13:31.010Z,91.00
2023-01-29T08:14:31.006Z,90.89
2023-01-29T08:15:30.979Z,90.79
2023-01-29T08:16:30.996Z,90.69
2023-01-29T08:17:30.986Z,90.58
2023-01-29T08:18:30.952Z,90.47
2023-01-29T08:19:30.940Z,90.69
2023-01-29T08:20:30.894Z,90.79
2023-01-29T08:21:30.973Z,90.85
2023-01-29T08:22:30.881Z,91.17
2023-01-29T08:23:30.898Z,91.38
2023-01-29T08:24:41.620Z,91.59
2023-01-29T08:25:31.922Z,91.59
2023-01-29T08:26:30.869Z,91.49
2023-01-29T08:27:30.855Z,91.38
2023-01-29T08:28:30.838Z,91.06
2023-01-29T08:29:30.813Z,90.96
2023-01-29T08:30:30.875Z,90.85
2023-01-29T08:31:30.832Z,90.96
2023-01-29T08:32:30.765Z,90.81
2023-01-29T08:33:38.697Z,90.96
2023-01-29T08:34:31.797Z,90.75
2023-01-29T08:35:30.769Z,90.64
2023-01-29T08:36:30.713Z,90.64
2023-01-29T08:37:30.739Z,90.43
2023-01-29T08:38:30.783Z,90.33
2023-01-29T08:39:30.959Z,90.33
2023-01-29T08:40:30.688Z,90.54
2023-01-29T08:41:30.704Z,90.64
2023-01-29T08:42:30.660Z,90.60
2023-01-29T08:43:30.655Z,90.81
2023-01-29T08:44:30.640Z,90.92
2023-01-29T08:45:30.699Z,90.92
2023-01-29T08:46:30.604Z,90.92
2023-01-29T08:47:30.621Z,91.02
2023-01-29T08:48:30.591Z,90.81
2023-01-29T08:49:30.628Z,90.81
2023-01-29T08:50:30.617Z,90.56
2023-01-29T08:51:30.643Z,90.35
2023-01-29T08:52:30.530Z,90.14
2023-01-29T08:53:30.555Z,90.14
2023-01-29T08:54:30.780Z,90.25
2023-01-29T08:55:30.627Z,90.10
2023-01-29T08:56:30.495Z,89.99
2023-01-29T08:57:30.509Z,89.78
2023-01-29T08:58:30.458Z,89.78
2023-01-29T08:59:30.537Z,89.89
2023-01-29T09:00:30.448Z,89.78
2023-01-29T09:01:30.542Z,89.68
2023-01-29T09:02:30.432Z,89.53
2023-01-29T09:03:30.436Z,89.53
2023-01-29T09:04:30.396Z,89.32
2023-01-29T09:05:30.414Z,88.90
2023-01-29T09:06:30.416Z,88.58
2023-01-29T09:07:30.420Z,88.58
2023-01-29T09:08:30.359Z,88.48
2023-01-29T09:09:30.452Z,88.48
2023-01-29T09:10:30.336Z,88.48
2023-01-29T09:11:30.356Z,88.58
2023-01-29T09:12:30.350Z,88.69
2023-01-29T09:13:30.329Z,88.69
2023-01-29T09:14:30.325Z,88.69
2023-01-29T09:15:30.353Z,88.79
2023-01-29T09:16:30.307Z,88.90
2023-01-29T09:17:30.287Z,88.79
2023-01-29T09:18:30.242Z,88.90
2023-01-29T09:19:30.245Z,88.90
2023-01-29T09:20:30.265Z,89.11
2023-01-29T09:21:30.308Z,89.07
2023-01-29T09:22:30.326Z,89.28
2023-01-29T09:23:30.209Z,89.03
2023-01-29T09:24:30.198Z,88.82
2023-01-29T09:25:30.217Z,88.60
2023-01-29T09:26:30.236Z,88.08
2023-01-29T09:27:30.176Z,87.87
2023-01-29T09:28:30.183Z,88.04
2023-01-29T09:29:31.140Z,87.93
2023-01-29T09:30:30.158Z,88.04
2023-01-29T09:31:30.211Z,87.83
2023-01-29T09:32:55.527Z,87.20
2023-01-29T09:33:31.173Z,87.10
2023-01-29T09:34:30.085Z,86.53
2023-01-29T09:35:30.099Z,86.11
2023-01-29T09:36:30.066Z,86.21
2023-01-29T09:37:30.085Z,86.74
2023-01-29T09:38:30.023Z,86.95
2023-01-29T09:39:30.036Z,86.95
2023-01-29T09:40:30.031Z,87.02
2023-01-29T09:41:30.021Z,86.49
2023-01-29T09:42:29.983Z,86.28
2023-01-29T09:43:30.003Z,85.96
2023-01-29T09:44:30.015Z,85.48
2023-01-29T09:45:29.964Z,85.37
2023-01-29T09:46:29.999Z,85.79
2023-01-29T09:47:29.954Z,86.07
2023-01-29T09:48:29.917Z,85.86
2023-01-29T09:49:30.719Z,85.44
2023-01-29T09:50:29.900Z,85.75
2023-01-29T09:51:29.959Z,86.18
2023-01-29T09:52:29.877Z,86.07
2023-01-29T09:53:30.016Z,86.03
2023-01-29T09:54:29.850Z,85.82
2023-01-29T09:55:29.919Z,85.61
2023-01-29T09:56:29.825Z,85.47
2023-01-29T09:57:29.887Z,85.15
2023-01-29T09:58:29.811Z,85.05
2023-01-29T09:59:29.868Z,84.91
2023-01-29T10:00:29.802Z,84.91
2023-01-29T10:01:29.906Z,84.38
2023-01-29T10:02:29.749Z,83.96
2023-01-29T10:03:29.785Z,83.96
2023-01-29T10:04:29.863Z,83.86
2023-01-29T10:05:29.761Z,83.86
2023-01-29T10:06:29.717Z,83.64
2023-01-29T10:07:29.740Z,83.01
2023-01-29T10:08:29.707Z,82.81
2023-01-29T10:09:29.756Z,83.01
2023-01-29T10:10:29.669Z,82.91
2023-01-29T10:11:29.695Z,82.81
2023-01-29T10:12:29.663Z,83.12
2023-01-29T10:13:29.661Z,83.58
2023-01-29T10:14:29.707Z,83.68
2023-01-29T10:15:29.654Z,83.58
2023-01-29T10:16:29.607Z,83.89
2023-01-29T10:17:29.614Z,84.00
2023-01-29T10:18:29.593Z,83.89
2023-01-29T10:19:29.598Z,83.89
2023-01-29T10:20:29.557Z,84.00
2023-01-29T10:21:29.641Z,84.20
2023-01-29T10:22:29.536Z,84.42
2023-01-29T10:23:29.548Z,84.42
2023-01-29T10:24:29.611Z,84.38
2023-01-29T10:25:29.544Z,84.27
2023-01-29T10:26:29.567Z,84.06
2023-01-29T10:27:29.513Z,83.96
2023-01-29T10:28:29.486Z,83.96
2023-01-29T10:29:29.516Z,84.06
2023-01-29T10:30:29.515Z,84.17
2023-01-29T10:31:29.623Z,83.96
2023-01-29T10:32:29.445Z,83.86
2023-01-29T10:33:31.031Z,83.64
2023-01-29T10:34:30.555Z,83.54
2023-01-29T10:35:29.436Z,83.33
2023-01-29T10:36:29.417Z,83.75
2023-01-29T10:37:29.372Z,83.86
2023-01-29T10:38:29.390Z,83.54
2023-01-29T10:39:29.342Z,83.29
2023-01-29T10:40:29.383Z,83.29
2023-01-29T10:41:29.374Z,83.29
2023-01-29T10:42:29.333Z,83.25
2023-01-29T10:43:29.339Z,83.04
2023-01-29T10:44:29.312Z,82.94
2023-01-29T10:45:30.712Z,82.90
2023-01-29T10:46:29.361Z,82.69
2023-01-29T10:47:30.319Z,82.27
2023-01-29T10:48:29.280Z,82.03
2023-01-29T10:49:29.241Z,81.71
2023-01-29T10:50:29.539Z,81.29
2023-01-29T10:51:29.231Z,81.29
2023-01-29T10:52:29.263Z,81.15
2023-01-29T10:53:29.191Z,80.83
2023-01-29T10:54:29.223Z,80.42
2023-01-29T10:55:29.161Z,79.72
2023-01-29T10:56:29.172Z,80.24
2023-01-29T10:57:29.168Z,80.77
2023-01-29T10:58:29.200Z,81.08
2023-01-29T10:59:29.129Z,81.40
2023-01-29T11:00:29.131Z,81.50
2023-01-29T11:01:29.181Z,81.46
2023-01-29T11:02:29.145Z,81.36
2023-01-29T11:03:29.500Z,80.94
2023-01-29T11:04:29.181Z,80.73
2023-01-29T11:05:29.052Z,80.52
2023-01-29T11:06:29.159Z,80.38
2023-01-29T11:07:29.085Z,80.27
2023-01-29T11:08:29.108Z,79.75
2023-01-29T11:09:29.052Z,79.96
2023-01-29T11:10:29.030Z,79.96
2023-01-29T11:11:29.023Z,79.64
2023-01-29T11:12:28.996Z,79.40
2023-01-29T11:13:29.022Z,79.30
2023-01-29T11:14:29.036Z,79.30
2023-01-29T11:15:28.956Z,78.99
2023-01-29T11:16:29.130Z,78.67
2023-01-29T11:17:29.942Z,78.56
2023-01-29T11:18:28.953Z,78.56
2023-01-29T11:19:28.909Z,78.46
2023-01-29T11:20:28.926Z,78.56
2023-01-29T11:21:28.877Z,78.46
2023-01-29T11:22:28.893Z,78.74
2023-01-29T11:23:29.142Z,78.74
2023-01-29T11:24:28.868Z,78.25
2023-01-29T11:25:28.919Z,77.83
2023-01-29T11:26:29.016Z,77.73
2023-01-29T11:27:28.830Z,77.94
2023-01-29T11:28:28.897Z,78.56
2023-01-29T11:29:28.817Z,78.88
2023-01-29T11:30:28.809Z,78.77
2023-01-29T11:31:28.915Z,78.99
2023-01-29T11:32:28.793Z,79.09
2023-01-29T11:33:28.775Z,79.19
2023-01-29T11:34:28.908Z,79.19
2023-01-29T11:35:28.716Z,78.95
2023-01-29T11:36:29.358Z,78.63
2023-01-29T11:37:28.695Z,78.74
2023-01-29T11:38:28.791Z,78.53
2023-01-29T11:39:28.692Z,78.32
2023-01-29T11:40:28.710Z,78.08
2023-01-29T11:41:28.673Z,77.97
2023-01-29T11:42:28.787Z,78.18
2023-01-29T11:43:28.657Z,78.28
2023-01-29T11:44:28.698Z,78.28
2023-01-29T11:45:28.605Z,77.14
2023-01-29T11:46:28.728Z,77.24
2023-01-29T11:47:28.583Z,77.66
2023-01-29T11:48:28.621Z,77.87
2023-01-29T11:49:28.565Z,78.08
2023-01-29T11:50:28.572Z,77.97
2023-01-29T11:51:28.563Z,77.76
2023-01-29T11:52:28.566Z,77.76
2023-01-29T11:53:28.544Z,77.55
2023-01-29T11:54:28.606Z,77.66
2023-01-29T11:55:33.132Z,77.45
2023-01-29T11:56:29.525Z,77.45
2023-01-29T11:57:28.517Z,77.87
2023-01-29T11:58:28.501Z,77.97
2023-01-29T11:59:28.507Z,77.87
2023-01-29T12:00:28.474Z,77.03
2023-01-29T12:01:28.653Z,77.76
2023-01-29T12:02:28.432Z,77.76
2023-01-29T12:03:28.678Z,78.60
2023-01-29T12:04:28.446Z,78.49
2023-01-29T12:05:28.369Z,78.28
2023-01-29T12:06:28.419Z,78.60
2023-01-29T12:07:28.354Z,78.81
2023-01-29T12:08:28.408Z,78.91
2023-01-29T12:09:28.522Z,79.12
2023-01-29T12:10:28.341Z,79.12
2023-01-29T12:11:28.441Z,78.49
2023-01-29T12:12:28.540Z,78.70
2023-01-29T12:13:28.360Z,78.91
2023-01-29T12:14:28.315Z,78.60
2023-01-29T12:15:28.298Z,78.88
2023-01-29T12:16:28.365Z,78.98
2023-01-29T12:17:28.257Z,78.67
2023-01-29T12:18:28.304Z,77.62
2023-01-29T12:19:28.215Z,77.76
2023-01-29T12:20:28.238Z,78.60
2023-01-29T12:21:28.204Z,79.22
2023-01-29T12:22:28.370Z,79.19
2023-01-29T12:23:28.172Z,79.08
2023-01-29T12:24:28.233Z,78.74
2023-01-29T12:25:28.159Z,78.53
2023-01-29T12:26:28.245Z,78.00
2023-01-29T12:27:28.135Z,77.38
2023-01-29T12:28:28.150Z,77.17
2023-01-29T12:29:28.107Z,77.38
2023-01-29T12:30:28.169Z,77.34
2023-01-29T12:31:28.323Z,77.24
2023-01-29T12:32:28.156Z,77.34
2023-01-29T12:33:28.809Z,76.82
2023-01-29T12:34:28.108Z,76.61
2023-01-29T12:35:28.045Z,76.75
2023-01-29T12:36:28.122Z,77.27
2023-01-29T12:37:28.018Z,77.17
2023-01-29T12:38:28.148Z,77.17
2023-01-29T12:39:28.049Z,77.27
2023-01-29T12:40:28.022Z,77.06
2023-01-29T12:41:28.124Z,77.62
2023-01-29T12:42:28.060Z,78.14
2023-01-29T12:43:27.946Z,78.46
2023-01-29T12:44:27.957Z,78.98
2023-01-29T12:45:27.969Z,79.82
2023-01-29T12:46:28.094Z,79.82
2023-01-29T12:47:27.963Z,79.82
2023-01-29T12:48:27.997Z,79.61
2023-01-29T12:49:27.877Z,79.26
2023-01-29T12:50:27.895Z,78.84
2023-01-29T12:51:27.867Z,79.05
2023-01-29T12:52:27.906Z,79.15
2023-01-29T12:53:27.854Z,78.84